This is the latest recevied weather packets stored in our database for station/object EA4URC-10. If no packets are shown the sender has not sent any weather packets the latest 1 day(s).
| Time | Temp. | Humidity | Pressure | Rain* | Wind** | Luminosity | Snow |
|---|---|---|---|---|---|---|---|
| 1778090618 | 12.78° C | 42% | 1026.4 hPa | - | - | - | - |
| 1778085225 | 13.89° C | 40% | 1026.5 hPa | - | - | - | - |
| 1778083416 | 13.33° C | 40% | 1026.7 hPa | - | - | - | - |
| 1778081620 | 13.89° C | 40% | 1026.8 hPa | - | - | - | - |
| 1778079815 | 13.33° C | 41% | 1027 hPa | - | - | - | - |
| 1778078021 | 13.89° C | 39% | 1027.2 hPa | - | - | - | - |
| 1778076220 | 14.44° C | 37% | 1027.4 hPa | - | - | - | - |
| 1778067221 | 15° C | 40% | 1028.2 hPa | - | - | - | - |
| 1778063617 | 13.33° C | 42% | 1028.3 hPa | - | - | - | - |
| 1778056423 | 14.44° C | 39% | 1028.1 hPa | - | - | - | - |
| 1778054619 | 11.67° C | 47% | 1028.1 hPa | - | - | - | - |
| 1778052818 | 10.56° C | 56% | 1028 hPa | - | - | - | - |
| 1778049217 | 7.78° C | 69% | 1027.7 hPa | - | - | - | - |
| 1778045617 | 5° C | 91% | 1027.5 hPa | - | - | - | - |
| 1778043884 | 3.33° C | 99% | 1027.5 hPa | - | - | - | - |
| 1778042015 | 3.33° C | 100% | 1027.4 hPa | - | - | - | - |
| 1778038414 | 3.33° C | 100% | 1027.6 hPa | - | - | - | - |
| 1778036617 | 3.89° C | 98% | 1027.6 hPa | - | - | - | - |
| 1778034984 | 3.89° C | 98% | 1027.6 hPa | - | - | - | - |
| 1778034818 | 3.89° C | 98% | 1027.6 hPa | - | - | - | - |
| 1778033117 | 3.89° C | 96% | 1027.5 hPa | - | - | - | - |
| 1778033018 | 3.89° C | 96% | 1027.5 hPa | - | - | - | - |
| 1778031270 | 4.44° C | 92% | 1027.7 hPa | - | - | - | - |
| 1778029417 | 4.44° C | 91% | 1027.9 hPa | - | - | - | - |
| 1778025816 | 5° C | 87% | 1028.3 hPa | - | - | - | - |
* Rain since midnight (hover to see other rain measurements)
** Current wind speed in m/s (hover to see current wind gust speed)